createdAt,value
2022-11-16T00:01:41.263Z,4.80
2022-11-16T00:04:11.865Z,4.39
2022-11-16T00:06:40.112Z,5.08
2022-11-16T00:09:23.252Z,5.02
2022-11-16T00:11:52.349Z,5.14
2022-11-16T00:14:22.412Z,5.24
2022-11-16T00:16:50.570Z,5.28
2022-11-16T00:19:18.282Z,5.30
2022-11-16T00:21:46.137Z,5.49
2022-11-16T00:24:15.368Z,5.34
2022-11-16T00:26:43.379Z,5.56
2022-11-16T00:29:15.922Z,5.57
2022-11-16T00:31:45.668Z,5.56
2022-11-16T00:34:13.855Z,5.58
2022-11-16T00:36:41.542Z,5.50
2022-11-16T00:39:12.561Z,5.46
2022-11-16T00:41:40.653Z,4.75
2022-11-16T00:44:08.733Z,5.32
2022-11-16T00:46:36.538Z,5.15
2022-11-16T00:49:06.445Z,5.18
2022-11-16T00:51:34.436Z,5.08
2022-11-16T00:54:03.044Z,4.78
2022-11-16T00:56:31.512Z,5.02
2022-11-16T00:58:59.231Z,4.91
2022-11-16T01:01:27.718Z,5.03
2022-11-16T01:03:55.474Z,5.03
2022-11-16T01:06:24.528Z,5.01
2022-11-16T01:08:52.370Z,4.96
2022-11-16T01:11:38.196Z,4.93
2022-11-16T01:14:08.304Z,4.98
2022-11-16T01:16:36.281Z,5.03
2022-11-16T01:19:05.130Z,4.90
2022-11-16T01:21:35.045Z,5.18
2022-11-16T01:24:02.942Z,5.28
2022-11-16T01:26:30.835Z,5.34
2022-11-16T01:28:59.155Z,5.36
2022-11-16T01:31:29.501Z,5.33
2022-11-16T01:33:58.583Z,5.45
2022-11-16T01:36:29.644Z,5.43
2022-11-16T01:39:01.158Z,5.35
2022-11-16T01:41:33.457Z,5.38
2022-11-16T01:44:06.970Z,5.43
2022-11-16T01:46:40.201Z,5.43
2022-11-16T01:49:14.361Z,5.46
2022-11-16T01:51:45.585Z,5.35
2022-11-16T01:54:17.250Z,5.45
2022-11-16T01:56:58.171Z,5.42
2022-11-16T01:59:37.370Z,5.18
2022-11-16T02:02:06.959Z,5.31
2022-11-16T02:04:35.586Z,5.38
2022-11-16T02:07:14.900Z,5.36
2022-11-16T02:09:58.811Z,5.32
2022-11-16T02:12:41.757Z,5.30
2022-11-16T02:15:18.192Z,5.37
2022-11-16T02:18:03.884Z,5.36
2022-11-16T02:20:44.445Z,5.40
2022-11-16T02:23:35.476Z,5.31
2022-11-16T02:26:21.183Z,5.27
2022-11-16T02:28:57.741Z,5.25
2022-11-16T02:31:31.564Z,5.17
2022-11-16T02:34:01.679Z,4.99
2022-11-16T02:36:29.356Z,4.90
2022-11-16T02:39:01.947Z,4.81
2022-11-16T02:41:35.937Z,4.93
2022-11-16T02:44:09.740Z,4.61
2022-11-16T02:46:44.883Z,5.11
2022-11-16T02:49:16.688Z,4.89
2022-11-16T02:51:48.036Z,4.69
2022-11-16T02:54:18.091Z,4.84
2022-11-16T02:56:54.730Z,4.84
2022-11-16T02:59:31.186Z,4.65
2022-11-16T03:02:11.269Z,4.56
2022-11-16T03:04:44.047Z,4.52
2022-11-16T03:07:15.945Z,4.42
2022-11-16T03:09:46.030Z,4.37
2022-11-16T03:12:20.725Z,4.39
2022-11-16T03:14:53.237Z,4.57
2022-11-16T03:17:25.397Z,4.65
2022-11-16T03:20:00.300Z,4.60
2022-11-16T03:22:32.271Z,4.52
2022-11-16T03:25:00.027Z,4.48
2022-11-16T03:27:37.542Z,4.36
2022-11-16T03:30:09.306Z,4.35
2022-11-16T03:32:47.044Z,4.31
2022-11-16T03:35:20.597Z,4.24
2022-11-16T03:37:53.770Z,4.13
2022-11-16T03:40:24.959Z,4.32
2022-11-16T03:42:53.686Z,4.35
2022-11-16T03:45:21.915Z,4.42
2022-11-16T03:47:52.919Z,4.51
2022-11-16T03:50:21.784Z,4.31
2022-11-16T03:52:49.661Z,4.15
2022-11-16T03:55:17.409Z,4.19
2022-11-16T03:57:46.002Z,4.29
2022-11-16T04:00:14.956Z,4.29
2022-11-16T04:02:43.380Z,4.14
2022-11-16T04:05:35.949Z,3.77
2022-11-16T04:08:23.277Z,4.22
2022-11-16T04:11:08.956Z,4.28
2022-11-16T04:13:54.797Z,4.13
2022-11-16T04:16:40.494Z,4.09
2022-11-16T04:19:27.103Z,3.99
2022-11-16T04:22:17.765Z,4.02
2022-11-16T04:24:48.509Z,4.05
2022-11-16T04:27:34.658Z,4.00
2022-11-16T04:30:05.765Z,3.99
2022-11-16T04:32:53.346Z,4.11
2022-11-16T04:35:38.748Z,4.05
2022-11-16T04:38:10.130Z,4.07
2022-11-16T04:40:38.375Z,3.91
2022-11-16T04:43:05.654Z,4.14
2022-11-16T04:45:54.096Z,3.99
2022-11-16T04:48:26.045Z,3.92
2022-11-16T04:50:55.414Z,4.14
2022-11-16T04:53:27.889Z,3.97
2022-11-16T04:56:03.585Z,3.98
2022-11-16T04:58:33.394Z,4.24
2022-11-16T05:01:01.542Z,4.22
2022-11-16T05:03:29.632Z,4.15
2022-11-16T05:05:57.391Z,4.31
2022-11-16T05:08:26.594Z,4.28
2022-11-16T05:10:55.503Z,4.19
2022-11-16T05:13:23.218Z,4.23
2022-11-16T05:15:52.317Z,4.11
2022-11-16T05:18:20.104Z,4.19
2022-11-16T05:21:02.566Z,4.19
2022-11-16T05:23:54.452Z,3.94
2022-11-16T05:26:24.528Z,4.14
2022-11-16T05:28:54.084Z,4.31
2022-11-16T05:31:22.044Z,4.27
2022-11-16T05:33:49.879Z,3.72
2022-11-16T05:36:18.925Z,4.40
2022-11-16T05:38:48.381Z,4.33
2022-11-16T05:41:18.873Z,4.13
2022-11-16T05:43:46.767Z,4.41
2022-11-16T05:46:19.342Z,4.21
2022-11-16T05:48:47.077Z,4.31
2022-11-16T05:51:14.848Z,4.32
2022-11-16T05:53:43.033Z,4.36
2022-11-16T05:56:14.260Z,4.32
2022-11-16T05:58:43.459Z,4.22
2022-11-16T06:01:11.470Z,4.40
2022-11-16T06:03:39.406Z,4.46
2022-11-16T06:06:07.718Z,4.43
2022-11-16T06:08:37.094Z,4.33
2022-11-16T06:11:09.301Z,4.46
2022-11-16T06:13:39.452Z,4.50
2022-11-16T06:16:09.125Z,4.56
2022-11-16T06:18:38.723Z,4.58
2022-11-16T06:21:07.096Z,4.61
2022-11-16T06:23:35.180Z,4.65
2022-11-16T06:26:03.992Z,4.68
2022-11-16T06:28:33.226Z,4.72
2022-11-16T06:31:03.096Z,4.63
2022-11-16T06:33:34.681Z,4.83
2022-11-16T06:36:05.901Z,4.87
2022-11-16T06:38:33.953Z,4.93
2022-11-16T06:41:02.585Z,4.89
2022-11-16T06:43:33.033Z,4.90
2022-11-16T06:46:02.450Z,4.86
2022-11-16T06:48:31.669Z,4.99
2022-11-16T06:50:59.758Z,5.01
2022-11-16T06:53:29.557Z,5.07
2022-11-16T06:56:02.894Z,5.02
2022-11-16T06:58:32.408Z,5.07
2022-11-16T07:01:07.727Z,5.12
2022-11-16T07:03:36.818Z,5.13
2022-11-16T07:06:09.256Z,5.15
2022-11-16T07:08:37.937Z,5.18
2022-11-16T07:11:07.329Z,5.20
2022-11-16T07:13:36.525Z,5.22
2022-11-16T07:16:08.917Z,5.21
2022-11-16T07:18:39.243Z,5.23
2022-11-16T07:21:07.884Z,5.29
2022-11-16T07:23:36.889Z,5.34
2022-11-16T07:26:07.268Z,5.28
2022-11-16T07:29:02.087Z,5.44
2022-11-16T07:31:32.129Z,5.48
2022-11-16T07:34:32.028Z,5.55
2022-11-16T07:37:09.174Z,5.59
2022-11-16T07:39:36.856Z,5.63
2022-11-16T07:42:11.387Z,5.70
2022-11-16T07:44:57.375Z,5.71
2022-11-16T07:47:26.431Z,5.72
2022-11-16T07:49:55.616Z,5.47
2022-11-16T07:52:26.645Z,5.78
2022-11-16T07:54:58.792Z,5.80
2022-11-16T07:57:28.562Z,5.72
2022-11-16T07:59:59.492Z,5.69
2022-11-16T08:02:30.644Z,5.85
2022-11-16T08:04:58.333Z,5.88
2022-11-16T08:07:28.622Z,5.67
2022-11-16T08:09:57.456Z,5.93
2022-11-16T08:12:25.431Z,5.93
2022-11-16T08:14:54.004Z,5.97
2022-11-16T08:17:22.009Z,6.01
2022-11-16T08:19:51.791Z,6.06
2022-11-16T08:22:20.368Z,6.02
2022-11-16T08:24:48.101Z,6.02
2022-11-16T08:27:17.427Z,6.16
2022-11-16T08:29:48.078Z,6.12
2022-11-16T08:32:16.401Z,6.25
2022-11-16T08:34:44.885Z,5.75
2022-11-16T08:37:13.946Z,6.33
2022-11-16T08:39:45.778Z,6.34
2022-11-16T08:42:13.775Z,6.29
2022-11-16T08:44:45.594Z,6.15
2022-11-16T08:47:16.016Z,6.52
2022-11-16T08:49:53.624Z,6.55
2022-11-16T08:52:23.927Z,6.60
2022-11-16T08:54:53.626Z,6.66
2022-11-16T08:57:21.888Z,6.70
2022-11-16T08:59:54.656Z,6.73
2022-11-16T09:02:25.454Z,6.82
2022-11-16T09:04:53.412Z,6.89
2022-11-16T09:07:21.523Z,6.91
2022-11-16T09:09:50.656Z,6.97
2022-11-16T09:12:18.707Z,6.99
2022-11-16T09:14:46.424Z,7.01
2022-11-16T09:17:17.607Z,6.95
2022-11-16T09:19:47.935Z,7.02
2022-11-16T09:22:15.569Z,7.00
2022-11-16T09:24:43.265Z,7.18
2022-11-16T09:27:12.367Z,7.18
2022-11-16T09:29:40.028Z,7.29
2022-11-16T09:32:07.735Z,7.35
2022-11-16T09:34:36.222Z,7.38
2022-11-16T09:37:03.927Z,7.46
2022-11-16T09:39:32.513Z,7.33
2022-11-16T09:42:22.562Z,7.34
2022-11-16T09:45:00.626Z,7.50
2022-11-16T09:47:41.574Z,7.56
2022-11-16T09:50:20.191Z,7.60
2022-11-16T09:52:51.983Z,7.58
2022-11-16T09:55:25.800Z,7.55
2022-11-16T09:57:58.224Z,7.48
2022-11-16T10:00:26.434Z,7.68
2022-11-16T10:03:02.733Z,7.69
2022-11-16T10:05:35.299Z,7.65
2022-11-16T10:08:11.330Z,7.69
2022-11-16T10:10:44.087Z,7.70
2022-11-16T10:13:27.912Z,7.66
2022-11-16T10:16:05.455Z,7.75
2022-11-16T10:18:46.731Z,7.78
2022-11-16T10:21:44.773Z,7.84
2022-11-16T10:24:46.263Z,7.97
2022-11-16T10:28:03.384Z,8.01
2022-11-16T10:30:38.883Z,8.03
2022-11-16T10:33:11.895Z,7.96
2022-11-16T10:35:43.815Z,7.95
2022-11-16T10:38:14.633Z,7.73
2022-11-16T10:40:42.742Z,7.90
2022-11-16T10:43:17.650Z,7.96
2022-11-16T10:45:53.312Z,7.93
2022-11-16T10:48:32.422Z,7.93
2022-11-16T10:51:00.117Z,7.92
2022-11-16T10:53:29.894Z,7.98
2022-11-16T10:56:12.442Z,8.03
2022-11-16T10:58:54.986Z,8.02
2022-11-16T11:01:33.052Z,8.03
2022-11-16T11:04:20.033Z,8.03
2022-11-16T11:06:51.358Z,8.09
2022-11-16T11:09:30.352Z,8.14
2022-11-16T11:12:32.164Z,8.21
2022-11-16T11:15:03.273Z,8.25
2022-11-16T11:17:33.662Z,8.26
2022-11-16T11:20:03.936Z,8.30
2022-11-16T11:22:33.560Z,8.44
2022-11-16T11:25:03.421Z,8.49
2022-11-16T11:27:34.512Z,8.56
2022-11-16T11:30:03.897Z,8.57
2022-11-16T11:32:41.422Z,8.58
2022-11-16T11:35:23.979Z,8.51
2022-11-16T11:37:54.113Z,8.67
2022-11-16T11:40:24.747Z,8.72
2022-11-16T11:42:57.748Z,8.81
2022-11-16T11:45:33.432Z,8.72
2022-11-16T11:48:06.346Z,8.57
2022-11-16T11:50:43.973Z,8.64
2022-11-16T11:53:24.271Z,8.66
2022-11-16T11:55:56.698Z,8.58
2022-11-16T11:58:29.954Z,8.70
2022-11-16T12:01:25.758Z,8.79
2022-11-16T12:04:30.923Z,8.82
2022-11-16T12:07:08.631Z,8.88
2022-11-16T12:09:47.476Z,8.93
2022-11-16T12:12:28.466Z,8.84
2022-11-16T12:15:09.485Z,8.83
2022-11-16T12:17:47.927Z,8.79
2022-11-16T12:20:29.196Z,8.77
2022-11-16T12:23:17.199Z,8.72
2022-11-16T12:25:55.756Z,8.65
2022-11-16T12:28:41.338Z,8.66
2022-11-16T12:31:32.527Z,8.63
2022-11-16T12:34:12.854Z,8.54
2022-11-16T12:36:52.320Z,8.76
2022-11-16T12:39:27.274Z,8.69
2022-11-16T12:42:11.623Z,8.64
2022-11-16T12:45:02.216Z,8.66
2022-11-16T12:47:41.776Z,8.65
2022-11-16T12:50:25.140Z,8.53
2022-11-16T12:53:08.128Z,8.63
2022-11-16T12:55:46.579Z,8.76
2022-11-16T12:58:21.481Z,8.44
2022-11-16T13:00:56.833Z,8.69
2022-11-16T13:03:30.455Z,8.89
2022-11-16T13:06:03.041Z,8.82
2022-11-16T13:08:45.301Z,9.00
2022-11-16T13:11:18.255Z,8.65
2022-11-16T13:13:52.967Z,9.11
2022-11-16T13:16:22.983Z,9.21
2022-11-16T13:18:51.669Z,9.35
2022-11-16T13:21:32.007Z,9.47
2022-11-16T13:24:21.565Z,9.50
2022-11-16T13:26:58.487Z,9.56
2022-11-16T13:29:35.491Z,9.57
2022-11-16T13:32:09.841Z,9.63
2022-11-16T13:34:40.755Z,9.86
2022-11-16T13:37:41.637Z,9.96
2022-11-16T13:40:25.347Z,9.83
2022-11-16T13:43:04.215Z,9.83
2022-11-16T13:45:37.295Z,9.72
2022-11-16T13:48:17.224Z,9.62
2022-11-16T13:50:49.521Z,9.49
2022-11-16T13:54:32.655Z,9.29
2022-11-16T13:56:15.950Z,9.37
2022-11-16T13:58:47.981Z,9.24
2022-11-16T14:01:16.798Z,9.29
2022-11-16T14:03:45.798Z,9.14
2022-11-16T14:06:58.076Z,9.03
2022-11-16T14:09:47.921Z,9.09
2022-11-16T14:12:58.828Z,8.90
2022-11-16T14:15:35.451Z,8.81
2022-11-16T14:18:34.025Z,8.69
2022-11-16T14:21:12.637Z,8.66
2022-11-16T14:23:53.934Z,8.55
2022-11-16T14:26:27.388Z,8.50
2022-11-16T14:29:23.915Z,8.50
2022-11-16T14:31:55.491Z,8.54
2022-11-16T14:34:32.058Z,8.52
2022-11-16T14:37:01.238Z,8.48
2022-11-16T14:39:37.207Z,8.54
2022-11-16T14:42:14.981Z,8.42
2022-11-16T14:44:43.962Z,8.25
2022-11-16T14:47:23.624Z,8.27
2022-11-16T14:49:52.121Z,8.30
2022-11-16T14:52:28.665Z,8.23
2022-11-16T14:55:00.270Z,7.89
2022-11-16T14:57:28.532Z,7.95
2022-11-16T15:00:10.035Z,8.00
2022-11-16T15:02:40.726Z,7.93
2022-11-16T15:05:15.132Z,7.88
2022-11-16T15:07:43.965Z,7.78
2022-11-16T15:10:17.232Z,7.75
2022-11-16T15:12:51.356Z,7.54
2022-11-16T15:15:23.033Z,7.47
2022-11-16T15:18:07.542Z,7.53
2022-11-16T15:20:37.712Z,7.50
2022-11-16T15:23:13.471Z,7.49
2022-11-16T15:25:44.046Z,7.46
2022-11-16T15:28:16.951Z,7.43
2022-11-16T15:30:47.805Z,7.33
2022-11-16T15:33:21.464Z,7.25
2022-11-16T15:35:49.274Z,6.93
2022-11-16T15:38:20.787Z,6.67
2022-11-16T15:40:52.670Z,6.85
2022-11-16T15:43:22.785Z,6.90
2022-11-16T15:45:51.309Z,6.76
2022-11-16T15:48:23.539Z,6.65
2022-11-16T15:51:05.700Z,6.60
2022-11-16T15:53:39.112Z,6.53
2022-11-16T15:56:09.956Z,6.35
2022-11-16T15:58:40.097Z,5.94
2022-11-16T16:01:08.850Z,6.06
2022-11-16T16:03:38.941Z,6.13
2022-11-16T16:06:08.507Z,6.04
2022-11-16T16:08:38.083Z,6.00
2022-11-16T16:11:11.998Z,5.97
2022-11-16T16:13:42.538Z,5.92
2022-11-16T16:16:30.008Z,5.85
2022-11-16T16:19:05.108Z,5.85
2022-11-16T16:21:45.609Z,5.76
2022-11-16T16:24:36.664Z,5.82
2022-11-16T16:27:11.863Z,5.71
2022-11-16T16:29:39.553Z,5.68
2022-11-16T16:32:09.986Z,5.50
2022-11-16T16:34:42.173Z,5.53
2022-11-16T16:37:12.721Z,5.53
2022-11-16T16:39:40.991Z,5.50
2022-11-16T16:42:11.543Z,5.31
2022-11-16T16:44:39.931Z,5.36
2022-11-16T16:47:07.897Z,5.30
2022-11-16T16:49:35.958Z,5.11
2022-11-16T16:52:06.139Z,5.22
2022-11-16T16:54:34.112Z,5.19
2022-11-16T16:57:02.403Z,5.15
2022-11-16T16:59:30.923Z,5.15
2022-11-16T17:01:58.830Z,5.11
2022-11-16T17:04:26.554Z,5.08
2022-11-16T17:06:54.652Z,4.59
2022-11-16T17:09:23.824Z,5.01
2022-11-16T17:11:51.513Z,4.97
2022-11-16T17:14:21.380Z,4.93
2022-11-16T17:16:49.187Z,4.82
2022-11-16T17:19:16.845Z,4.71
2022-11-16T17:21:44.498Z,4.75
2022-11-16T17:24:12.722Z,4.77
2022-11-16T17:26:42.516Z,4.76
2022-11-16T17:29:10.178Z,4.71
2022-11-16T17:31:43.295Z,4.65
2022-11-16T17:34:13.871Z,4.63
2022-11-16T17:36:42.079Z,4.29
2022-11-16T17:39:09.919Z,4.59
2022-11-16T17:41:38.157Z,4.11
2022-11-16T17:44:07.401Z,4.55
2022-11-16T17:46:47.857Z,4.58
2022-11-16T17:49:15.516Z,4.58
2022-11-16T17:51:43.185Z,4.56
2022-11-16T17:54:10.909Z,4.58
2022-11-16T17:56:38.714Z,4.63
2022-11-16T17:59:07.689Z,4.60
2022-11-16T18:01:35.395Z,4.57
2022-11-16T18:04:03.431Z,4.54
2022-11-16T18:06:31.981Z,4.48
2022-11-16T18:08:59.891Z,4.44
2022-11-16T18:11:28.650Z,4.22
2022-11-16T18:13:57.731Z,4.40
2022-11-16T18:16:28.091Z,4.41
2022-11-16T18:19:00.571Z,4.36
2022-11-16T18:21:28.719Z,4.24
2022-11-16T18:23:56.544Z,4.47
2022-11-16T18:26:25.173Z,4.47
2022-11-16T18:28:54.191Z,4.44
2022-11-16T18:31:23.712Z,4.42
2022-11-16T18:33:53.034Z,4.45
2022-11-16T18:36:22.026Z,4.60
2022-11-16T18:38:49.931Z,4.62
2022-11-16T18:41:19.970Z,4.61
2022-11-16T18:43:52.739Z,4.60
2022-11-16T18:46:21.065Z,4.54
2022-11-16T18:48:49.001Z,4.60
2022-11-16T18:51:19.432Z,4.61
2022-11-16T18:53:47.429Z,4.49
2022-11-16T18:56:15.781Z,4.41
2022-11-16T18:58:50.417Z,4.27
2022-11-16T19:01:20.989Z,4.42
2022-11-16T19:03:49.045Z,4.42
2022-11-16T19:06:18.504Z,4.26
2022-11-16T19:08:52.156Z,4.10
2022-11-16T19:11:23.721Z,4.41
2022-11-16T19:13:54.169Z,3.86
2022-11-16T19:16:22.686Z,4.40
2022-11-16T19:18:54.007Z,4.36
2022-11-16T19:21:23.860Z,4.51
2022-11-16T19:23:55.643Z,4.53
2022-11-16T19:26:25.783Z,4.16
2022-11-16T19:28:54.635Z,4.31
2022-11-16T19:31:24.471Z,4.28
2022-11-16T19:33:54.650Z,4.16
2022-11-16T19:36:24.754Z,4.08
2022-11-16T19:38:55.813Z,4.01
2022-11-16T19:41:24.100Z,3.91
2022-11-16T19:43:56.865Z,3.86
2022-11-16T19:46:24.911Z,3.80
2022-11-16T19:48:53.082Z,3.80
2022-11-16T19:51:22.505Z,3.81
2022-11-16T19:53:51.946Z,3.83
2022-11-16T19:56:21.239Z,3.83
2022-11-16T19:58:48.969Z,3.84
2022-11-16T20:01:19.040Z,3.85
2022-11-16T20:03:48.455Z,3.94
2022-11-16T20:06:17.893Z,3.95
2022-11-16T20:08:49.025Z,3.96
2022-11-16T20:11:20.540Z,4.01
2022-11-16T20:13:48.851Z,3.95
2022-11-16T20:16:17.633Z,3.83
2022-11-16T20:18:46.121Z,3.80
2022-11-16T20:21:19.213Z,3.59
2022-11-16T20:23:46.915Z,3.69
2022-11-16T20:26:15.517Z,3.63
2022-11-16T20:28:45.117Z,3.57
2022-11-16T20:31:14.718Z,3.59
2022-11-16T20:33:43.194Z,3.45
2022-11-16T20:36:12.333Z,3.41
2022-11-16T20:38:40.690Z,3.38
2022-11-16T20:41:09.717Z,3.29
2022-11-16T20:43:39.205Z,3.29
2022-11-16T20:46:08.765Z,3.26
2022-11-16T20:48:37.007Z,3.26
2022-11-16T20:51:05.671Z,3.19
2022-11-16T20:53:34.228Z,3.16
2022-11-16T20:56:03.033Z,2.79
2022-11-16T20:58:30.945Z,3.06
2022-11-16T21:01:00.657Z,3.09
2022-11-16T21:03:29.801Z,2.93
2022-11-16T21:05:57.550Z,2.90
2022-11-16T21:08:27.290Z,2.84
2022-11-16T21:10:55.253Z,2.76
2022-11-16T21:13:40.897Z,2.66
2022-11-16T21:16:11.251Z,2.68
2022-11-16T21:18:41.161Z,2.64
2022-11-16T21:21:11.037Z,2.62
2022-11-16T21:23:40.544Z,2.57
2022-11-16T21:26:11.668Z,2.54
2022-11-16T21:28:39.997Z,2.53
2022-11-16T21:31:09.204Z,2.50
2022-11-16T21:33:37.503Z,2.11
2022-11-16T21:36:08.904Z,2.40
2022-11-16T21:38:36.940Z,2.41
2022-11-16T21:41:06.212Z,2.42
2022-11-16T21:43:36.111Z,2.38
2022-11-16T21:46:05.900Z,2.40
2022-11-16T21:48:34.336Z,2.37
2022-11-16T21:51:02.846Z,2.33
2022-11-16T21:53:34.491Z,2.32
2022-11-16T21:56:03.272Z,1.91
2022-11-16T21:58:30.950Z,2.25
2022-11-16T22:01:00.767Z,2.08
2022-11-16T22:03:30.528Z,2.02
2022-11-16T22:06:17.192Z,2.11
2022-11-16T22:08:47.316Z,2.04
2022-11-16T22:11:16.062Z,2.04
2022-11-16T22:13:44.492Z,1.94
2022-11-16T22:16:15.031Z,2.03
2022-11-16T22:18:43.032Z,1.14
2022-11-16T22:21:11.333Z,2.04
2022-11-16T22:23:40.018Z,1.81
2022-11-16T22:26:10.933Z,2.00
2022-11-16T22:28:39.244Z,1.97
2022-11-16T22:31:08.412Z,1.94
2022-11-16T22:33:36.384Z,1.91
2022-11-16T22:36:04.472Z,1.43
2022-11-16T22:38:32.683Z,1.45
2022-11-16T22:41:00.325Z,1.86
2022-11-16T22:43:31.088Z,1.85
2022-11-16T22:45:59.828Z,1.81
2022-11-16T22:48:32.160Z,1.73
2022-11-16T22:51:04.624Z,1.71
2022-11-16T22:53:32.569Z,1.69
2022-11-16T22:56:11.266Z,1.69
2022-11-16T22:58:41.014Z,1.51
2022-11-16T23:01:10.385Z,1.75
2022-11-16T23:03:38.971Z,1.67
2022-11-16T23:06:07.698Z,1.69
2022-11-16T23:08:36.248Z,1.60
2022-11-16T23:11:23.781Z,1.63
2022-11-16T23:14:11.840Z,1.60
2022-11-16T23:16:40.363Z,1.55
2022-11-16T23:19:28.871Z,1.38
2022-11-16T23:22:14.657Z,1.44
2022-11-16T23:25:00.260Z,1.36
2022-11-16T23:27:30.927Z,1.44
2022-11-16T23:30:02.621Z,1.41
2022-11-16T23:32:32.405Z,1.42
2022-11-16T23:35:00.293Z,1.31
2022-11-16T23:37:27.936Z,0.67
2022-11-16T23:39:55.583Z,1.42
2022-11-16T23:42:40.646Z,1.45
2022-11-16T23:45:10.218Z,1.33
2022-11-16T23:47:37.959Z,1.30
2022-11-16T23:50:06.419Z,1.25
2022-11-16T23:52:34.067Z,1.27
2022-11-16T23:55:01.737Z,1.31
2022-11-16T23:57:29.408Z,1.20
2022-11-16T23:59:57.032Z,1.19
